Okara Weather



Okara's Current Weather

Temprature 20.11o clear sky

clear sky

Rain: 0 %

Min Temprature20.11o
Max Temprature20.11o
Humidity33
Wind Speed0.13 m/h
Sun Rise05:45:10
Sun Set18:29:52
Current Time: 09-Apr-2020 01:25:54
Lat/Lon: 30.81, 73.45




Okara's Geo Location



Okara's Weather Forecast

Time Overall Temp Min Temp Max Temp Humidity Wind Speed Rain
09-Apr-2020 (Thu)
02:00:00 clear sky 20.110 20.110 20.110 33 0.13 m/h 0 %
05:00:00 few clouds 19.550 19.550 19.550 34 1.85 m/h 0 %
08:00:00 clear sky 24.730 24.730 24.730 27 1.69 m/h 0 %
11:00:00 scattered clouds 31.560 31.560 31.560 17 2.29 m/h 0 %
14:00:00 overcast clouds 34.140 34.140 34.140 14 2.9 m/h 0 %
17:00:00 broken clouds 33.910 33.910 33.910 14 1.06 m/h 0 %
20:00:00 broken clouds 27.520 27.520 27.520 21 1.85 m/h 0 %
23:00:00 overcast clouds 25.460 25.460 25.460 25 1.24 m/h 0 %
10-Apr-2020 (Fri)
02:00:00 light rain 23.620 23.620 23.620 30 2.27 m/h 14 %
05:00:00 broken clouds 21.110 21.110 21.110 36 1.85 m/h 0 %
08:00:00 clear sky 26.300 26.300 26.300 29 2.49 m/h 0 %
11:00:00 clear sky 33.940 33.940 33.940 16 2.74 m/h 0 %
14:00:00 clear sky 37.320 37.320 37.320 12 0.32 m/h 0 %
17:00:00 clear sky 36.010 36.010 36.010 12 3.6 m/h 0 %
20:00:00 clear sky 28.620 28.620 28.620 22 3.74 m/h 0 %
23:00:00 clear sky 25.320 25.320 25.320 33 2.81 m/h 0 %
11-Apr-2020 (Sat)
02:00:00 few clouds 23.630 23.630 23.630 37 3.15 m/h 0 %
05:00:00 few clouds 22.300 22.300 22.300 41 2.73 m/h 0 %
08:00:00 broken clouds 27.540 27.540 27.540 31 3.12 m/h 0 %
11:00:00 broken clouds 34.910 34.910 34.910 18 3.52 m/h 0 %
14:00:00 few clouds 37.370 37.370 37.370 13 2.96 m/h 0 %
17:00:00 broken clouds 36.950 36.950 36.950 12 4.27 m/h 0 %
20:00:00 broken clouds 29.730 29.730 29.730 19 3.06 m/h 0 %
23:00:00 overcast clouds 27.010 27.010 27.010 24 3.02 m/h 0 %
12-Apr-2020 (Sun)
02:00:00 broken clouds 25.550 25.550 25.550 28 2.51 m/h 0 %
05:00:00 scattered clouds 24.070 24.070 24.070 32 2.17 m/h 0 %
08:00:00 scattered clouds 29.670 29.670 29.670 23 0.31 m/h 0 %
11:00:00 broken clouds 36.070 36.070 36.070 16 3.14 m/h 0 %
14:00:00 overcast clouds 38.600 38.600 38.600 13 4.24 m/h 0 %
17:00:00 overcast clouds 37.440 37.440 37.440 14 4.7 m/h 0 %
20:00:00 broken clouds 30.460 30.460 30.460 22 2.83 m/h 0 %
23:00:00 scattered clouds 27.800 27.800 27.800 24 2.24 m/h 0 %
13-Apr-2020 (Mon)
02:00:00 scattered clouds 26.320 26.320 26.320 26 2.37 m/h 0 %
05:00:00 scattered clouds 24.930 24.930 24.930 28 1.66 m/h 0 %
08:00:00 broken clouds 30.550 30.550 30.550 20 0.95 m/h 0 %
11:00:00 broken clouds 37.850 37.850 37.850 12 2.34 m/h 0 %
14:00:00 scattered clouds 41.140 41.140 41.140 9 4.22 m/h 0 %
17:00:00 scattered clouds 40.320 40.320 40.320 9 3.83 m/h 0 %
20:00:00 clear sky 32.380 32.380 32.380 15 2.45 m/h 0 %
23:00:00 clear sky 29.620 29.620 29.620 18 2.68 m/h 0 %

Famous Cities (61)